ěÝzenÝ letovÚho provozu ╚eskÚ republiky
OPMET data - Ceska Republika Aktualizace: 07.04.2020 02:33:26  UTC
SIGMET / AIRMET - NIL
Warning / Vystraha - NIL
AIREP - NIL
REG QNH
REGIONAL QNH FORECAST ISSUED 2020-04-06 23:43 AREA VALID FM/TL QNH/HPA/ : LKAA 070000/070300 1025 =
 
METAR / SPECI
METAR LKBC 070230Z AUTO 09004KT CAVOK 05/M04 Q1028=
METAR LKCV 070230Z 12006KT CAVOK 09/M05 Q1029 NOSIG RMK BLU BLU=
METAR LKKB 070230Z 10004KT CAVOK 06/M03 Q1028 RMK BLU=
METAR LKKU NIL
METAR LKKV 070200Z 00000KT CAVOK 03/M01 Q1028 RMK REG QNH 1025=
METAR LKLN 070230Z AUTO 00000KT CAVOK 03/01 Q1028=
METAR LKMT 070230Z 27004KT CAVOK 03/M03 Q1031 NOSIG RMK REG QNH 1025=
METAR LKNA 070230Z 11008KT CAVOK 07/M06 Q1029 RMK BLU=
METAR LKPD 070230Z 04004KT CAVOK 07/M04 Q1029 RMK BLU=
METAR LKPJ 070230Z AUTO 29002KT CAVOK 01/M04 Q1031=
METAR LKPR 070230Z 12004KT CAVOK 07/M03 Q1028 NOSIG RMK REG QNH 1025=
METAR LKTB 070230Z 08008KT CAVOK 07/M05 Q1031 NOSIG RMK REG QNH 1025=
METAR LKVO NIL
TAF
TAF LKBC NIL
TAF LKCV 062300Z 0700/0800 15012KT CAVOK      BECMG 0704/0706 14007KT=
TAF LKKB 062300Z 0700/0800 11005KT CAVOK=
TAF LKKU NIL
TAF LKKV 062300Z 0700/0806 VRB02KT CAVOK      TEMPO 0703/0706 3500 BR NSC      BECMG 0709/0712 07006KT=
TAF LKLN NIL
TAF LKMT 062300Z 0700/0806 21008KT CAVOK      TEMPO 0708/0716 23014G24KT=
TAF LKNA 062300Z 0700/0800 12008KT CAVOK      TEMPO 0708/0714 14017KT      BECMG 0718/0720 10005KT=
TAF LKPD 062300Z 0700/0800 09005KT CAVOK=
TAF LKPJ NIL
TAF LKPR 062300Z 0700/0806 15006KT CAVOK      TEMPO 0703/0709 VRB02KT      BECMG 0709/0712 09008KT=
TAF LKTB 062300Z 0700/0806 12008KT CAVOK      TEMPO 0708/0716 15014G24KT=
TAF LKVO NIL